sensor_id;sensor_type;location;lat;lon;timestamp;P1;durP1;ratioP1;P2;durP2;ratioP2
60372;SDS011;46216;52.220;5.134;2022-12-11T00:00:17;235.63;;;35.03;;
60372;SDS011;46216;52.220;5.134;2022-12-11T00:02:42;187.95;;;35.08;;
60372;SDS011;46216;52.220;5.134;2022-12-11T00:05:07;171.43;;;33.65;;
60372;SDS011;46216;52.220;5.134;2022-12-11T00:07:33;171.98;;;32.70;;
60372;SDS011;46216;52.220;5.134;2022-12-11T00:09:58;191.33;;;34.83;;
60372;SDS011;46216;52.220;5.134;2022-12-11T00:12:24;169.05;;;33.03;;
60372;SDS011;46216;52.220;5.134;2022-12-11T00:14:49;176.30;;;34.78;;
60372;SDS011;46216;52.220;5.134;2022-12-11T00:17:14;203.75;;;34.88;;
60372;SDS011;46216;52.220;5.134;2022-12-11T00:19:40;190.48;;;32.97;;
60372;SDS011;46216;52.220;5.134;2022-12-11T00:22:05;171.98;;;33.28;;
60372;SDS011;46216;52.220;5.134;2022-12-11T00:24:30;170.25;;;33.95;;
60372;SDS011;46216;52.220;5.134;2022-12-11T00:26:56;158.35;;;34.45;;
60372;SDS011;46216;52.220;5.134;2022-12-11T00:29:21;159.55;;;33.50;;
60372;SDS011;46216;52.220;5.134;2022-12-11T00:31:46;167.65;;;33.42;;
60372;SDS011;46216;52.220;5.134;2022-12-11T00:34:12;148.85;;;32.83;;
60372;SDS011;46216;52.220;5.134;2022-12-11T00:36:37;141.20;;;32.72;;
60372;SDS011;46216;52.220;5.134;2022-12-11T00:39:03;139.25;;;32.15;;
60372;SDS011;46216;52.220;5.134;2022-12-11T00:41:29;155.95;;;34.05;;
60372;SDS011;46216;52.220;5.134;2022-12-11T00:43:55;142.93;;;32.90;;
60372;SDS011;46216;52.220;5.134;2022-12-11T00:46:21;138.15;;;33.33;;
60372;SDS011;46216;52.220;5.134;2022-12-11T00:48:46;141.30;;;33.05;;
60372;SDS011;46216;52.220;5.134;2022-12-11T00:51:13;149.20;;;33.60;;
60372;SDS011;46216;52.220;5.134;2022-12-11T00:53:39;139.67;;;33.20;;
60372;SDS011;46216;52.220;5.134;2022-12-11T00:56:08;154.63;;;32.53;;
60372;SDS011;46216;52.220;5.134;2022-12-11T00:58:39;149.38;;;34.10;;
60372;SDS011;46216;52.220;5.134;2022-12-11T01:01:06;140.90;;;31.83;;
60372;SDS011;46216;52.220;5.134;2022-12-11T01:03:37;126.53;;;31.38;;
60372;SDS011;46216;52.220;5.134;2022-12-11T01:06:02;123.03;;;32.00;;
60372;SDS011;46216;52.220;5.134;2022-12-11T01:08:28;143.90;;;33.00;;
60372;SDS011;46216;52.220;5.134;2022-12-11T01:11:10;139.32;;;33.33;;
60372;SDS011;46216;52.220;5.134;2022-12-11T01:13:37;145.30;;;33.63;;
60372;SDS011;46216;52.220;5.134;2022-12-11T01:16:10;152.95;;;35.05;;
60372;SDS011;46216;52.220;5.134;2022-12-11T01:18:38;153.25;;;34.47;;
60372;SDS011;46216;52.220;5.134;2022-12-11T01:21:04;131.32;;;33.60;;
60372;SDS011;46216;52.220;5.134;2022-12-11T01:23:30;152.25;;;34.45;;
60372;SDS011;46216;52.220;5.134;2022-12-11T01:25:56;142.93;;;34.28;;
60372;SDS011;46216;52.220;5.134;2022-12-11T01:28:21;153.57;;;35.33;;
60372;SDS011;46216;52.220;5.134;2022-12-11T01:30:46;129.45;;;33.47;;
60372;SDS011;46216;52.220;5.134;2022-12-11T01:33:13;139.23;;;34.78;;
60372;SDS011;46216;52.220;5.134;2022-12-11T01:35:38;154.63;;;35.50;;
60372;SDS011;46216;52.220;5.134;2022-12-11T01:38:04;134.10;;;34.47;;
60372;SDS011;46216;52.220;5.134;2022-12-11T01:40:29;125.65;;;34.47;;
60372;SDS011;46216;52.220;5.134;2022-12-11T01:42:55;144.15;;;33.60;;
60372;SDS011;46216;52.220;5.134;2022-12-11T01:45:22;144.93;;;34.27;;
60372;SDS011;46216;52.220;5.134;2022-12-11T01:47:51;127.70;;;32.83;;
60372;SDS011;46216;52.220;5.134;2022-12-11T01:50:20;119.95;;;32.17;;
60372;SDS011;46216;52.220;5.134;2022-12-11T01:52:46;131.02;;;32.28;;
60372;SDS011;46216;52.220;5.134;2022-12-11T01:55:13;124.80;;;33.38;;
60372;SDS011;46216;52.220;5.134;2022-12-11T01:57:42;131.20;;;32.40;;
60372;SDS011;46216;52.220;5.134;2022-12-11T02:00:11;117.47;;;32.60;;
60372;SDS011;46216;52.220;5.134;2022-12-11T02:02:37;122.03;;;33.50;;
60372;SDS011;46216;52.220;5.134;2022-12-11T02:05:03;136.43;;;32.40;;
60372;SDS011;46216;52.220;5.134;2022-12-11T02:07:31;113.75;;;33.45;;
60372;SDS011;46216;52.220;5.134;2022-12-11T02:10:02;114.65;;;32.42;;
60372;SDS011;46216;52.220;5.134;2022-12-11T02:12:31;111.55;;;32.90;;
60372;SDS011;46216;52.220;5.134;2022-12-11T02:15:15;103.00;;;31.13;;
60372;SDS011;46216;52.220;5.134;2022-12-11T02:20:35;98.90;;;30.38;;
60372;SDS011;46216;52.220;5.134;2022-12-11T02:34:03;114.50;;;32.67;;
60372;SDS011;46216;52.220;5.134;2022-12-11T02:36:43;119.10;;;32.53;;
60372;SDS011;46216;52.220;5.134;2022-12-11T02:39:13;116.95;;;35.30;;
60372;SDS011;46216;52.220;5.134;2022-12-11T02:41:45;104.55;;;32.65;;
60372;SDS011;46216;52.220;5.134;2022-12-11T02:44:13;94.78;;;30.70;;
60372;SDS011;46216;52.220;5.134;2022-12-11T02:46:42;95.10;;;30.30;;
60372;SDS011;46216;52.220;5.134;2022-12-11T02:49:08;82.22;;;28.02;;
60372;SDS011;46216;52.220;5.134;2022-12-11T02:51:37;89.43;;;30.95;;
60372;SDS011;46216;52.220;5.134;2022-12-11T02:54:05;84.82;;;29.67;;
60372;SDS011;46216;52.220;5.134;2022-12-11T02:56:39;81.10;;;27.92;;
60372;SDS011;46216;52.220;5.134;2022-12-11T02:59:14;80.50;;;27.70;;
60372;SDS011;46216;52.220;5.134;2022-12-11T03:01:45;76.93;;;26.85;;
60372;SDS011;46216;52.220;5.134;2022-12-11T03:04:11;69.40;;;27.65;;
60372;SDS011;46216;52.220;5.134;2022-12-11T03:06:38;68.97;;;26.95;;
60372;SDS011;46216;52.220;5.134;2022-12-11T03:09:08;67.50;;;25.40;;
60372;SDS011;46216;52.220;5.134;2022-12-11T03:11:34;74.03;;;26.83;;
60372;SDS011;46216;52.220;5.134;2022-12-11T03:13:59;65.57;;;26.33;;
60372;SDS011;46216;52.220;5.134;2022-12-11T03:21:53;62.35;;;24.40;;
60372;SDS011;46216;52.220;5.134;2022-12-11T03:24:40;59.80;;;24.88;;
60372;SDS011;46216;52.220;5.134;2022-12-11T03:27:18;59.88;;;23.95;;
60372;SDS011;46216;52.220;5.134;2022-12-11T03:30:06;59.08;;;22.92;;
60372;SDS011;46216;52.220;5.134;2022-12-11T03:32:37;56.90;;;23.80;;
60372;SDS011;46216;52.220;5.134;2022-12-11T03:35:17;60.00;;;24.05;;
60372;SDS011;46216;52.220;5.134;2022-12-11T03:37:47;54.55;;;22.17;;
60372;SDS011;46216;52.220;5.134;2022-12-11T03:40:15;56.58;;;22.60;;
60372;SDS011;46216;52.220;5.134;2022-12-11T03:42:43;51.13;;;21.58;;
60372;SDS011;46216;52.220;5.134;2022-12-11T03:45:11;52.28;;;21.38;;
60372;SDS011;46216;52.220;5.134;2022-12-11T03:47:38;48.55;;;21.63;;
60372;SDS011;46216;52.220;5.134;2022-12-11T03:50:06;54.88;;;23.10;;
60372;SDS011;46216;52.220;5.134;2022-12-11T03:52:35;51.65;;;22.08;;
60372;SDS011;46216;52.220;5.134;2022-12-11T03:55:04;53.72;;;22.83;;
60372;SDS011;46216;52.220;5.134;2022-12-11T03:57:31;54.65;;;23.10;;
60372;SDS011;46216;52.220;5.134;2022-12-11T04:00:00;53.15;;;22.23;;
60372;SDS011;46216;52.220;5.134;2022-12-11T04:02:29;51.35;;;22.58;;
60372;SDS011;46216;52.220;5.134;2022-12-11T04:04:55;62.80;;;22.67;;
60372;SDS011;46216;52.220;5.134;2022-12-11T04:07:20;51.58;;;22.80;;
60372;SDS011;46216;52.220;5.134;2022-12-11T04:09:45;47.72;;;21.02;;
60372;SDS011;46216;52.220;5.134;2022-12-11T04:12:11;46.60;;;21.63;;
60372;SDS011;46216;52.220;5.134;2022-12-11T04:14:36;51.28;;;22.10;;
60372;SDS011;46216;52.220;5.134;2022-12-11T04:17:20;50.25;;;22.13;;
60372;SDS011;46216;52.220;5.134;2022-12-11T04:20:04;50.13;;;21.52;;
60372;SDS011;46216;52.220;5.134;2022-12-11T04:22:49;51.40;;;21.13;;
60372;SDS011;46216;52.220;5.134;2022-12-11T04:25:33;49.92;;;21.10;;
60372;SDS011;46216;52.220;5.134;2022-12-11T04:27:58;46.70;;;22.45;;
60372;SDS011;46216;52.220;5.134;2022-12-11T04:30:24;45.17;;;21.85;;
60372;SDS011;46216;52.220;5.134;2022-12-11T04:32:50;50.20;;;21.10;;
60372;SDS011;46216;52.220;5.134;2022-12-11T04:35:17;45.88;;;21.77;;
60372;SDS011;46216;52.220;5.134;2022-12-11T04:37:43;43.60;;;20.73;;
60372;SDS011;46216;52.220;5.134;2022-12-11T04:40:09;45.25;;;21.67;;
60372;SDS011;46216;52.220;5.134;2022-12-11T04:42:38;44.90;;;21.05;;
60372;SDS011;46216;52.220;5.134;2022-12-11T04:45:04;41.83;;;20.70;;
60372;SDS011;46216;52.220;5.134;2022-12-11T04:47:30;43.35;;;20.80;;
60372;SDS011;46216;52.220;5.134;2022-12-11T04:49:56;46.47;;;21.13;;
60372;SDS011;46216;52.220;5.134;2022-12-11T04:52:21;44.33;;;21.23;;
60372;SDS011;46216;52.220;5.134;2022-12-11T04:54:46;39.83;;;19.63;;
60372;SDS011;46216;52.220;5.134;2022-12-11T04:57:12;45.03;;;20.75;;
60372;SDS011;46216;52.220;5.134;2022-12-11T04:59:37;38.50;;;19.67;;
60372;SDS011;46216;52.220;5.134;2022-12-11T05:02:03;38.67;;;20.05;;
60372;SDS011;46216;52.220;5.134;2022-12-11T05:04:32;42.03;;;19.30;;
60372;SDS011;46216;52.220;5.134;2022-12-11T05:06:58;41.65;;;20.33;;
60372;SDS011;46216;52.220;5.134;2022-12-11T05:09:24;44.85;;;21.13;;
60372;SDS011;46216;52.220;5.134;2022-12-11T05:11:50;42.38;;;20.45;;
60372;SDS011;46216;52.220;5.134;2022-12-11T05:14:15;41.13;;;21.42;;
60372;SDS011;46216;52.220;5.134;2022-12-11T05:16:41;42.20;;;20.33;;
60372;SDS011;46216;52.220;5.134;2022-12-11T05:19:06;42.05;;;22.02;;
60372;SDS011;46216;52.220;5.134;2022-12-11T05:21:31;43.05;;;21.60;;
60372;SDS011;46216;52.220;5.134;2022-12-11T05:23:57;46.63;;;22.02;;
60372;SDS011;46216;52.220;5.134;2022-12-11T05:26:22;42.05;;;21.83;;
60372;SDS011;46216;52.220;5.134;2022-12-11T05:28:51;45.05;;;22.90;;
60372;SDS011;46216;52.220;5.134;2022-12-11T05:31:19;48.13;;;23.13;;
60372;SDS011;46216;52.220;5.134;2022-12-11T05:33:47;43.88;;;22.45;;
60372;SDS011;46216;52.220;5.134;2022-12-11T05:38:51;45.60;;;21.63;;
60372;SDS011;46216;52.220;5.134;2022-12-11T05:41:19;45.45;;;22.73;;
60372;SDS011;46216;52.220;5.134;2022-12-11T05:43:47;41.45;;;23.17;;
60372;SDS011;46216;52.220;5.134;2022-12-11T05:46:14;42.40;;;22.45;;
60372;SDS011;46216;52.220;5.134;2022-12-11T05:48:45;43.63;;;22.80;;
60372;SDS011;46216;52.220;5.134;2022-12-11T05:51:11;45.67;;;22.70;;
60372;SDS011;46216;52.220;5.134;2022-12-11T05:53:38;45.58;;;23.27;;
60372;SDS011;46216;52.220;5.134;2022-12-11T05:56:05;41.28;;;22.95;;
60372;SDS011;46216;52.220;5.134;2022-12-11T05:58:34;43.97;;;23.65;;
60372;SDS011;46216;52.220;5.134;2022-12-11T06:00:59;39.67;;;22.20;;
60372;SDS011;46216;52.220;5.134;2022-12-11T06:03:26;51.38;;;24.10;;
60372;SDS011;46216;52.220;5.134;2022-12-11T06:05:52;44.85;;;23.02;;
60372;SDS011;46216;52.220;5.134;2022-12-11T06:08:17;44.05;;;22.17;;
60372;SDS011;46216;52.220;5.134;2022-12-11T06:10:49;40.78;;;22.25;;
60372;SDS011;46216;52.220;5.134;2022-12-11T06:13:14;40.88;;;21.75;;
60372;SDS011;46216;52.220;5.134;2022-12-11T06:15:40;40.75;;;22.45;;
60372;SDS011;46216;52.220;5.134;2022-12-11T06:18:06;43.22;;;22.17;;
60372;SDS011;46216;52.220;5.134;2022-12-11T06:20:32;42.85;;;21.35;;
60372;SDS011;46216;52.220;5.134;2022-12-11T06:22:58;41.47;;;22.67;;
60372;SDS011;46216;52.220;5.134;2022-12-11T06:25:23;43.13;;;21.42;;
60372;SDS011;46216;52.220;5.134;2022-12-11T06:27:49;39.42;;;20.63;;
60372;SDS011;46216;52.220;5.134;2022-12-11T06:30:14;40.90;;;21.25;;
60372;SDS011;46216;52.220;5.134;2022-12-11T06:32:40;41.85;;;22.80;;
60372;SDS011;46216;52.220;5.134;2022-12-11T06:35:06;45.70;;;21.98;;
60372;SDS011;46216;52.220;5.134;2022-12-11T06:37:33;44.23;;;22.50;;
60372;SDS011;46216;52.220;5.134;2022-12-11T06:39:59;41.50;;;22.63;;
60372;SDS011;46216;52.220;5.134;2022-12-11T06:42:26;40.40;;;21.27;;
60372;SDS011;46216;52.220;5.134;2022-12-11T06:44:54;42.05;;;22.55;;
60372;SDS011;46216;52.220;5.134;2022-12-11T06:47:21;39.85;;;21.50;;
60372;SDS011;46216;52.220;5.134;2022-12-11T06:49:47;40.47;;;21.73;;
60372;SDS011;46216;52.220;5.134;2022-12-11T06:52:13;40.45;;;21.30;;
60372;SDS011;46216;52.220;5.134;2022-12-11T06:54:38;39.85;;;21.48;;
60372;SDS011;46216;52.220;5.134;2022-12-11T06:57:03;39.63;;;21.10;;
60372;SDS011;46216;52.220;5.134;2022-12-11T06:59:29;40.35;;;20.92;;
60372;SDS011;46216;52.220;5.134;2022-12-11T07:01:54;39.58;;;21.85;;
60372;SDS011;46216;52.220;5.134;2022-12-11T07:04:20;41.88;;;22.05;;
60372;SDS011;46216;52.220;5.134;2022-12-11T07:06:48;42.75;;;21.67;;
60372;SDS011;46216;52.220;5.134;2022-12-11T07:09:14;38.40;;;21.10;;
60372;SDS011;46216;52.220;5.134;2022-12-11T07:11:39;40.45;;;21.05;;
60372;SDS011;46216;52.220;5.134;2022-12-11T07:14:04;38.22;;;20.55;;
60372;SDS011;46216;52.220;5.134;2022-12-11T07:16:31;36.13;;;19.52;;
60372;SDS011;46216;52.220;5.134;2022-12-11T07:18:56;37.08;;;19.80;;
60372;SDS011;46216;52.220;5.134;2022-12-11T07:21:21;38.30;;;20.30;;
60372;SDS011;46216;52.220;5.134;2022-12-11T07:23:47;39.97;;;21.85;;
60372;SDS011;46216;52.220;5.134;2022-12-11T07:26:14;36.97;;;21.50;;
60372;SDS011;46216;52.220;5.134;2022-12-11T07:28:42;40.08;;;20.98;;
60372;SDS011;46216;52.220;5.134;2022-12-11T07:31:09;37.92;;;21.67;;
60372;SDS011;46216;52.220;5.134;2022-12-11T07:33:35;38.80;;;20.80;;
60372;SDS011;46216;52.220;5.134;2022-12-11T07:36:03;42.13;;;21.90;;
60372;SDS011;46216;52.220;5.134;2022-12-11T07:38:30;39.30;;;21.65;;
60372;SDS011;46216;52.220;5.134;2022-12-11T07:40:59;43.92;;;22.45;;
60372;SDS011;46216;52.220;5.134;2022-12-11T07:43:25;38.17;;;21.38;;
60372;SDS011;46216;52.220;5.134;2022-12-11T07:45:50;41.78;;;22.88;;
60372;SDS011;46216;52.220;5.134;2022-12-11T07:48:16;42.25;;;23.50;;
60372;SDS011;46216;52.220;5.134;2022-12-11T07:50:41;41.92;;;22.38;;
60372;SDS011;46216;52.220;5.134;2022-12-11T07:53:06;42.63;;;23.50;;
60372;SDS011;46216;52.220;5.134;2022-12-11T07:55:31;42.03;;;23.17;;
60372;SDS011;46216;52.220;5.134;2022-12-11T07:57:57;43.55;;;22.85;;
60372;SDS011;46216;52.220;5.134;2022-12-11T08:00:22;39.20;;;21.10;;
60372;SDS011;46216;52.220;5.134;2022-12-11T08:02:47;39.38;;;20.52;;
60372;SDS011;46216;52.220;5.134;2022-12-11T08:05:13;37.90;;;19.48;;
60372;SDS011;46216;52.220;5.134;2022-12-11T08:07:38;39.17;;;21.38;;
60372;SDS011;46216;52.220;5.134;2022-12-11T08:10:04;37.40;;;20.33;;
60372;SDS011;46216;52.220;5.134;2022-12-11T08:12:30;40.22;;;21.65;;
60372;SDS011;46216;52.220;5.134;2022-12-11T08:14:55;48.70;;;22.30;;
60372;SDS011;46216;52.220;5.134;2022-12-11T08:17:20;46.53;;;22.90;;
60372;SDS011;46216;52.220;5.134;2022-12-11T08:19:45;45.08;;;22.77;;
60372;SDS011;46216;52.220;5.134;2022-12-11T08:22:11;44.85;;;22.35;;
60372;SDS011;46216;52.220;5.134;2022-12-11T08:24:38;42.08;;;22.10;;
60372;SDS011;46216;52.220;5.134;2022-12-11T08:27:03;43.47;;;22.10;;
60372;SDS011;46216;52.220;5.134;2022-12-11T08:29:29;42.20;;;21.00;;
60372;SDS011;46216;52.220;5.134;2022-12-11T08:31:55;42.88;;;21.65;;
60372;SDS011;46216;52.220;5.134;2022-12-11T08:34:20;42.30;;;21.75;;
60372;SDS011;46216;52.220;5.134;2022-12-11T08:36:46;40.25;;;21.48;;
60372;SDS011;46216;52.220;5.134;2022-12-11T08:39:11;41.63;;;21.95;;
60372;SDS011;46216;52.220;5.134;2022-12-11T08:41:38;39.72;;;22.48;;
60372;SDS011;46216;52.220;5.134;2022-12-11T08:44:03;41.47;;;22.17;;
60372;SDS011;46216;52.220;5.134;2022-12-11T08:46:29;43.97;;;22.65;;
60372;SDS011;46216;52.220;5.134;2022-12-11T08:48:56;44.53;;;22.77;;
60372;SDS011;46216;52.220;5.134;2022-12-11T08:51:23;47.55;;;24.20;;
60372;SDS011;46216;52.220;5.134;2022-12-11T08:53:50;39.88;;;22.38;;
60372;SDS011;46216;52.220;5.134;2022-12-11T08:56:18;43.92;;;22.65;;
60372;SDS011;46216;52.220;5.134;2022-12-11T08:58:45;41.38;;;23.15;;
60372;SDS011;46216;52.220;5.134;2022-12-11T09:01:16;42.53;;;23.33;;
60372;SDS011;46216;52.220;5.134;2022-12-11T09:03:45;46.10;;;22.70;;
60372;SDS011;46216;52.220;5.134;2022-12-11T09:06:12;42.80;;;23.10;;
60372;SDS011;46216;52.220;5.134;2022-12-11T09:08:40;43.85;;;23.33;;
60372;SDS011;46216;52.220;5.134;2022-12-11T09:11:11;41.05;;;22.25;;
60372;SDS011;46216;52.220;5.134;2022-12-11T09:13:38;41.63;;;23.88;;
60372;SDS011;46216;52.220;5.134;2022-12-11T09:16:05;42.33;;;22.88;;
60372;SDS011;46216;52.220;5.134;2022-12-11T09:18:31;41.20;;;22.33;;
60372;SDS011;46216;52.220;5.134;2022-12-11T09:20:57;40.35;;;21.98;;
60372;SDS011;46216;52.220;5.134;2022-12-11T09:23:23;41.92;;;22.98;;
60372;SDS011;46216;52.220;5.134;2022-12-11T09:25:49;42.97;;;23.13;;
60372;SDS011;46216;52.220;5.134;2022-12-11T09:28:14;38.78;;;22.58;;
60372;SDS011;46216;52.220;5.134;2022-12-11T09:30:40;41.17;;;23.17;;
60372;SDS011;46216;52.220;5.134;2022-12-11T09:33:05;40.00;;;22.63;;
60372;SDS011;46216;52.220;5.134;2022-12-11T09:35:31;37.67;;;22.67;;
60372;SDS011;46216;52.220;5.134;2022-12-11T09:37:56;38.42;;;22.48;;
60372;SDS011;46216;52.220;5.134;2022-12-11T09:40:21;38.95;;;22.95;;
60372;SDS011;46216;52.220;5.134;2022-12-11T09:42:49;39.10;;;22.92;;
60372;SDS011;46216;52.220;5.134;2022-12-11T09:45:18;36.13;;;22.05;;
60372;SDS011;46216;52.220;5.134;2022-12-11T09:47:45;36.97;;;22.35;;
60372;SDS011;46216;52.220;5.134;2022-12-11T09:50:16;36.45;;;22.42;;
60372;SDS011;46216;52.220;5.134;2022-12-11T09:55:22;36.08;;;22.73;;
60372;SDS011;46216;52.220;5.134;2022-12-11T09:58:12;38.00;;;23.35;;
60372;SDS011;46216;52.220;5.134;2022-12-11T10:00:45;40.70;;;23.73;;
60372;SDS011;46216;52.220;5.134;2022-12-11T10:03:23;38.38;;;24.00;;
60372;SDS011;46216;52.220;5.134;2022-12-11T10:06:12;38.55;;;23.05;;
60372;SDS011;46216;52.220;5.134;2022-12-11T10:14:27;41.83;;;24.40;;
60372;SDS011;46216;52.220;5.134;2022-12-11T10:17:01;38.80;;;23.33;;
60372;SDS011;46216;52.220;5.134;2022-12-11T10:19:33;42.90;;;25.35;;
60372;SDS011;46216;52.220;5.134;2022-12-11T10:21:59;41.50;;;24.13;;
60372;SDS011;46216;52.220;5.134;2022-12-11T10:24:43;40.60;;;24.20;;
60372;SDS011;46216;52.220;5.134;2022-12-11T10:27:19;42.78;;;24.92;;
60372;SDS011;46216;52.220;5.134;2022-12-11T10:29:46;39.92;;;24.63;;
60372;SDS011;46216;52.220;5.134;2022-12-11T10:32:22;37.50;;;23.58;;
60372;SDS011;46216;52.220;5.134;2022-12-11T10:34:58;40.35;;;23.85;;
60372;SDS011;46216;52.220;5.134;2022-12-11T10:37:28;37.78;;;23.58;;
60372;SDS011;46216;52.220;5.134;2022-12-11T10:39:53;39.20;;;23.95;;
60372;SDS011;46216;52.220;5.134;2022-12-11T10:42:19;38.83;;;22.88;;
60372;SDS011;46216;52.220;5.134;2022-12-11T10:44:59;38.85;;;23.70;;
60372;SDS011;46216;52.220;5.134;2022-12-11T10:47:27;41.13;;;23.90;;
60372;SDS011;46216;52.220;5.134;2022-12-11T10:49:56;37.78;;;23.42;;
60372;SDS011;46216;52.220;5.134;2022-12-11T10:52:26;37.88;;;23.70;;
60372;SDS011;46216;52.220;5.134;2022-12-11T10:57:44;40.00;;;23.80;;
60372;SDS011;46216;52.220;5.134;2022-12-11T11:02:57;37.83;;;23.38;;
60372;SDS011;46216;52.220;5.134;2022-12-11T11:05:31;35.83;;;21.52;;
60372;SDS011;46216;52.220;5.134;2022-12-11T11:08:12;41.33;;;23.38;;
60372;SDS011;46216;52.220;5.134;2022-12-11T11:10:49;40.22;;;23.02;;
60372;SDS011;46216;52.220;5.134;2022-12-11T11:13:15;40.08;;;23.63;;
60372;SDS011;46216;52.220;5.134;2022-12-11T11:15:40;38.08;;;23.15;;
60372;SDS011;46216;52.220;5.134;2022-12-11T11:18:10;36.72;;;22.38;;
60372;SDS011;46216;52.220;5.134;2022-12-11T11:20:42;36.42;;;22.05;;
60372;SDS011;46216;52.220;5.134;2022-12-11T11:23:12;39.63;;;21.45;;
60372;SDS011;46216;52.220;5.134;2022-12-11T11:25:46;39.30;;;22.23;;
60372;SDS011;46216;52.220;5.134;2022-12-11T11:28:18;36.72;;;21.45;;
60372;SDS011;46216;52.220;5.134;2022-12-11T11:31:02;37.45;;;21.58;;
60372;SDS011;46216;52.220;5.134;2022-12-11T11:33:31;35.92;;;22.63;;
60372;SDS011;46216;52.220;5.134;2022-12-11T11:36:02;36.53;;;20.70;;
60372;SDS011;46216;52.220;5.134;2022-12-11T11:38:31;32.95;;;20.85;;
60372;SDS011;46216;52.220;5.134;2022-12-11T11:41:23;32.45;;;20.75;;
60372;SDS011;46216;52.220;5.134;2022-12-11T11:43:57;34.33;;;21.00;;
60372;SDS011;46216;52.220;5.134;2022-12-11T11:46:34;33.35;;;20.50;;
60372;SDS011;46216;52.220;5.134;2022-12-11T11:51:55;32.97;;;19.48;;
60372;SDS011;46216;52.220;5.134;2022-12-11T11:54:28;33.33;;;20.00;;
60372;SDS011;46216;52.220;5.134;2022-12-11T11:57:10;32.70;;;19.13;;
60372;SDS011;46216;52.220;5.134;2022-12-11T11:59:55;31.73;;;18.80;;
60372;SDS011;46216;52.220;5.134;2022-12-11T12:02:23;36.65;;;21.13;;
60372;SDS011;46216;52.220;5.134;2022-12-11T12:04:49;35.35;;;19.52;;
60372;SDS011;46216;52.220;5.134;2022-12-11T12:12:36;35.05;;;19.58;;
60372;SDS011;46216;52.220;5.134;2022-12-11T12:17:57;33.22;;;18.95;;
60372;SDS011;46216;52.220;5.134;2022-12-11T12:20:33;33.05;;;19.17;;
60372;SDS011;46216;52.220;5.134;2022-12-11T12:28:52;34.42;;;18.95;;
60372;SDS011;46216;52.220;5.134;2022-12-11T12:43:02;32.05;;;19.13;;
60372;SDS011;46216;52.220;5.134;2022-12-11T12:48:23;31.35;;;19.15;;
60372;SDS011;46216;52.220;5.134;2022-12-11T12:50:51;31.48;;;19.02;;
60372;SDS011;46216;52.220;5.134;2022-12-11T12:53:18;33.28;;;18.85;;
60372;SDS011;46216;52.220;5.134;2022-12-11T12:55:49;29.48;;;18.08;;
60372;SDS011;46216;52.220;5.134;2022-12-11T12:58:49;31.38;;;18.92;;
60372;SDS011;46216;52.220;5.134;2022-12-11T13:06:36;33.45;;;18.80;;
60372;SDS011;46216;52.220;5.134;2022-12-11T13:09:21;33.55;;;19.30;;
60372;SDS011;46216;52.220;5.134;2022-12-11T13:11:49;35.10;;;18.58;;
60372;SDS011;46216;52.220;5.134;2022-12-11T13:16:45;33.47;;;19.33;;
60372;SDS011;46216;52.220;5.134;2022-12-11T13:21:57;36.78;;;20.35;;
60372;SDS011;46216;52.220;5.134;2022-12-11T13:24:48;38.47;;;20.23;;
60372;SDS011;46216;52.220;5.134;2022-12-11T13:27:39;39.03;;;20.50;;
60372;SDS011;46216;52.220;5.134;2022-12-11T13:30:19;37.33;;;21.02;;
60372;SDS011;46216;52.220;5.134;2022-12-11T13:32:57;42.22;;;21.98;;
60372;SDS011;46216;52.220;5.134;2022-12-11T13:35:31;39.38;;;20.42;;
60372;SDS011;46216;52.220;5.134;2022-12-11T13:38:00;39.38;;;21.45;;
60372;SDS011;46216;52.220;5.134;2022-12-11T13:40:41;42.58;;;20.85;;
60372;SDS011;46216;52.220;5.134;2022-12-11T13:43:17;43.83;;;23.25;;
60372;SDS011;46216;52.220;5.134;2022-12-11T13:45:45;40.58;;;21.33;;
60372;SDS011;46216;52.220;5.134;2022-12-11T13:48:22;41.08;;;21.15;;
60372;SDS011;46216;52.220;5.134;2022-12-11T13:50:51;39.55;;;21.95;;
60372;SDS011;46216;52.220;5.134;2022-12-11T13:53:18;43.70;;;21.98;;
60372;SDS011;46216;52.220;5.134;2022-12-11T13:55:45;39.13;;;21.80;;
60372;SDS011;46216;52.220;5.134;2022-12-11T13:58:17;42.83;;;21.10;;
60372;SDS011;46216;52.220;5.134;2022-12-11T14:03:28;43.63;;;21.48;;
60372;SDS011;46216;52.220;5.134;2022-12-11T14:05:55;44.20;;;22.90;;
60372;SDS011;46216;52.220;5.134;2022-12-11T14:08:21;45.08;;;22.77;;
60372;SDS011;46216;52.220;5.134;2022-12-11T14:10:51;37.80;;;21.35;;
60372;SDS011;46216;52.220;5.134;2022-12-11T14:13:21;41.38;;;22.40;;
60372;SDS011;46216;52.220;5.134;2022-12-11T14:15:51;42.50;;;22.35;;
60372;SDS011;46216;52.220;5.134;2022-12-11T14:18:25;43.63;;;22.65;;
60372;SDS011;46216;52.220;5.134;2022-12-11T14:20:57;42.45;;;22.00;;
60372;SDS011;46216;52.220;5.134;2022-12-11T14:23:28;41.90;;;21.88;;
60372;SDS011;46216;52.220;5.134;2022-12-11T14:28:23;42.10;;;22.25;;
60372;SDS011;46216;52.220;5.134;2022-12-11T14:30:52;38.35;;;21.77;;
60372;SDS011;46216;52.220;5.134;2022-12-11T14:33:19;41.42;;;22.48;;
60372;SDS011;46216;52.220;5.134;2022-12-11T14:35:47;42.53;;;22.23;;
60372;SDS011;46216;52.220;5.134;2022-12-11T14:38:17;43.47;;;21.77;;
60372;SDS011;46216;52.220;5.134;2022-12-11T14:40:47;39.92;;;22.00;;
60372;SDS011;46216;52.220;5.134;2022-12-11T14:43:32;44.08;;;22.02;;
60372;SDS011;46216;52.220;5.134;2022-12-11T14:46:07;39.20;;;21.73;;
60372;SDS011;46216;52.220;5.134;2022-12-11T14:48:55;42.10;;;21.73;;
60372;SDS011;46216;52.220;5.134;2022-12-11T14:51:27;48.08;;;22.02;;
60372;SDS011;46216;52.220;5.134;2022-12-11T14:53:57;42.67;;;22.63;;
60372;SDS011;46216;52.220;5.134;2022-12-11T14:56:24;43.83;;;22.30;;
60372;SDS011;46216;52.220;5.134;2022-12-11T14:58:57;40.42;;;22.52;;
60372;SDS011;46216;52.220;5.134;2022-12-11T15:01:32;43.33;;;23.05;;
60372;SDS011;46216;52.220;5.134;2022-12-11T15:06:28;45.05;;;23.58;;
60372;SDS011;46216;52.220;5.134;2022-12-11T15:12:07;44.22;;;22.83;;
60372;SDS011;46216;52.220;5.134;2022-12-11T15:14:39;46.33;;;24.63;;
60372;SDS011;46216;52.220;5.134;2022-12-11T15:17:11;41.90;;;22.60;;
60372;SDS011;46216;52.220;5.134;2022-12-11T15:19:38;45.80;;;23.30;;
60372;SDS011;46216;52.220;5.134;2022-12-11T15:22:05;44.97;;;24.35;;
60372;SDS011;46216;52.220;5.134;2022-12-11T15:24:35;43.53;;;23.85;;
60372;SDS011;46216;52.220;5.134;2022-12-11T15:27:04;48.13;;;24.50;;
60372;SDS011;46216;52.220;5.134;2022-12-11T15:29:37;44.13;;;22.58;;
60372;SDS011;46216;52.220;5.134;2022-12-11T15:34:56;49.15;;;23.73;;
60372;SDS011;46216;52.220;5.134;2022-12-11T15:37:27;44.95;;;22.52;;
60372;SDS011;46216;52.220;5.134;2022-12-11T15:39:55;45.38;;;23.77;;
60372;SDS011;46216;52.220;5.134;2022-12-11T15:42:31;47.00;;;23.90;;
60372;SDS011;46216;52.220;5.134;2022-12-11T15:45:00;47.30;;;23.45;;
60372;SDS011;46216;52.220;5.134;2022-12-11T15:47:28;44.58;;;23.52;;
60372;SDS011;46216;52.220;5.134;2022-12-11T15:49:58;46.22;;;23.30;;
60372;SDS011;46216;52.220;5.134;2022-12-11T15:52:25;45.63;;;24.88;;
60372;SDS011;46216;52.220;5.134;2022-12-11T15:54:51;42.67;;;22.48;;
60372;SDS011;46216;52.220;5.134;2022-12-11T15:57:18;42.92;;;22.60;;
60372;SDS011;46216;52.220;5.134;2022-12-11T15:59:45;42.42;;;23.27;;